Heaters, West Virginia
Current Conditions -  °F | °C
As of 2:35 PM on Thursday 27 Nov 2014 (Local Time) from KW22 Reporting Station
Light Rain Light Rain  
Wind Chill: 24°   Ceiling: NA
Heat Index: 32°   Visibility: 8mi
Dew Point: 27°   Wind: 10mph
Humidity: 80%   Direction: 270°W
Pressure: 30.1"   Gusts: NA
Location:  38.76°N, 80.64°W
Report Text: KW22 271935Z AUTO 27009KT 8SM -RA M00/M03 A3010 RMK AO2
Loading
Personal Weather Stations






























Interactive Weather Map New forecast layout! Learn more

10-Day Weather Forecast

Advertisements
Track Severe Weather on mobile